• Join FlightAware (Why Join?)
  • Login
  • US Flag 
10:16AM EST


 

Airport Tracker/Info


-or-


 

Live Flight TrackerFlight Track Log ✈ EJA941 ✈ 10-Jan-2014 ✈ KIKG - KCRP

Flight Track Log - Related Links

Times and Time Zones

All times are in EST time to prevent confusion due to time zone crossing. See the EJA941 flight status page for this flight to view local times or setup timezone preferences in your user account.

Time Position Orientation Groundspeed Altitude Reporting Facility
EST Latitude Longitude Course Direction KTS MPH feet Rate Location/Type
06:06PM 27.5606 -97.9719 322° Northwest 225 259 1,600  Level Houston Center
06:07PM 27.6147 -98.0192 322° Northwest 242 278 1,600 1,140 Level Houston Center
06:08PM 27.6825 -98.0439 342° North 273 314 4,000 2,160 Climbing Houston Center
06:08PM 27.6900 -98.0386 32° Northeast 274 315 4,000  Level Houston Center
06:09PM 27.7108 -97.9981 60° Northeast 276 318 4,000  Level Houston Center
06:09PM 27.7136 -97.9692 84° East 266 306 4,000  Level Houston Center
06:10PM 27.7314 -97.9128 70° East 267 307 4,000  Level Houston Center
06:10PM 27.7400 -97.8814 73° East 267 307 4,000  Level Houston Center
06:11PM 27.7547 -97.8361 70° East 272 313 4,000 -420 Level Houston Center
06:11PM 27.7661 -97.7986 71° East 273 314 3,600 -1,020 Descending Houston Center
06:12PM 27.7817 -97.7522 69° East 272 313 3,000 -1,020 Descending Houston Center
06:12PM 27.7917 -97.7194 71° East 265 305 2,600 -900 Descending Houston Center
06:13PM 27.8053 -97.6781 70° East 259 298 2,100 -600 Descending Houston Center
06:13PM 27.8158 -97.6417 72° East 258 297 2,000 -240 Descending Houston Center
06:14PM 27.8272 -97.6089 69° East 237 273 1,900 -540 Descending Houston Center
06:14PM 27.8244 -97.5739 95° East 220 253 1,500 -840 Descending Houston Center
06:15PM 27.8131 -97.5539 123° Southeast 177 204 1,100 -900 Descending Houston Center
06:15PM 27.7961 -97.5356 136° Southeast 155 178 600 -600 Descending Houston Center
06:16PM 27.7717 -97.5086 136° Southeast 128 147 200 -420 Descending Houston Center
06:18PM 27.7667 -97.5000 77° East  Level FlightAware Approximate